Time;durP1;ratioP1;P1;durP2;ratioP2;P2;SDS_P1;SDS_P2;PMS_P1;PMS_P2;Temp;Humidity;BMP_temperature;BMP_pressure;BME280_temperature;BME280_humidity;BME280_pressure;Samples;Min_cycle;Max_cycle;Signal;HPM_P1;HPM_P2
2022/04/01 00:02:10;;;;;;;;;;;6.40;99.90;;;;;;5092100;28;19928;-46
2022/04/01 00:04:39;;;;;;;;;;;6.40;99.90;;;;;;5092404;28;20299;-47
2022/04/01 00:07:06;;;;;;;;;;;6.70;99.90;;;;;;5092322;28;20015;-48
2022/04/01 00:09:33;;;;;;;;;;;6.60;99.90;;;;;;5092222;28;19931;-47
2022/04/01 00:11:59;;;;;;;;;;;6.50;99.90;;;;;;5089346;28;19932;-47
2022/04/01 00:14:26;;;;;;;;;;;6.60;99.90;;;;;;5090516;28;20438;-47
2022/04/01 00:16:53;;;;;;;;;;;6.70;99.90;;;;;;5092275;28;19928;-49
2022/04/01 00:19:20;;;;;;;;;;;6.80;99.90;;;;;;5092230;28;19928;-49
2022/04/01 00:21:48;;;;;;;;;;;6.60;99.90;;;;;;5091776;28;19932;-49
2022/04/01 00:24:15;;;;;;;;;;;6.50;99.90;;;;;;5091265;28;19924;-47
2022/04/01 00:26:42;;;;;;;;;;;6.50;99.90;;;;;;5091742;28;20378;-46
2022/04/01 00:29:16;;;;;;;;;;;6.60;99.90;;;;;;5091393;28;19954;-47
2022/04/01 00:31:43;;;;;;;;;;;6.70;99.90;;;;;;5081591;28;19924;-48
2022/04/01 00:34:18;;;;;;;;;;;6.60;99.90;;;;;;5091141;28;19940;-46
2022/04/01 00:36:45;;;;;;;;;;;6.40;99.90;;;;;;5091760;28;19927;-47
2022/04/01 00:39:14;;;;;;;;;;;6.50;99.90;;;;;;5091423;28;19970;-47
2022/04/01 00:41:44;;;;;;;;;;;6.40;99.90;;;;;;5091607;28;19928;-47
2022/04/01 00:44:12;;;;;;;;;;;6.50;99.90;;;;;;5091564;28;20015;-48
2022/04/01 00:46:40;;;;;;;;;;;6.50;99.90;;;;;;5091357;28;19944;-47
2022/04/01 00:49:06;;;;;;;;;;;6.50;99.90;;;;;;5091671;28;19978;-48
2022/04/01 00:51:33;;;;;;;;;;;6.60;99.90;;;;;;5091028;28;20471;-48
2022/04/01 00:54:00;;;;;;;;;;;6.60;99.90;;;;;;5091329;28;19946;-49
2022/04/01 00:56:31;;;;;;;;;;;6.50;99.90;;;;;;5091402;28;19924;-48
2022/04/01 00:58:57;;;;;;;;;;;6.40;99.90;;;;;;5091523;28;19974;-49
2022/04/01 01:01:25;;;;;;;;;;;6.50;99.90;;;;;;5091210;28;19928;-48
2022/04/01 01:03:52;;;;;;;;;;;6.50;99.90;;;;;;5090801;28;19924;-49
2022/04/01 01:06:19;;;;;;;;;;;6.50;99.90;;;;;;5091050;28;19924;-49
2022/04/01 01:08:47;;;;;;;;;;;6.60;99.90;;;;;;5091581;28;19924;-48
2022/04/01 01:11:14;;;;;;;;;;;6.60;99.90;;;;;;5091107;28;19931;-49
2022/04/01 01:13:42;;;;;;;;;;;6.40;99.90;;;;;;5090868;28;19924;-48
2022/04/01 01:16:09;;;;;;;;;;;6.30;99.90;;;;;;5090898;28;19924;-48
2022/04/01 01:18:36;;;;;;;;;;;6.40;99.90;;;;;;5090917;28;19928;-48
2022/04/01 01:21:04;;;;;;;;;;;6.30;99.90;;;;;;5091054;28;19924;-47
2022/04/01 01:23:32;;;;;;;;;;;6.40;99.90;;;;;;5091194;28;20037;-49
2022/04/01 01:26:00;;;;;;;;;;;6.30;99.90;;;;;;5090858;28;20340;-49
2022/04/01 01:28:28;;;;;;;;;;;6.30;99.90;;;;;;5090969;28;20001;-48
2022/04/01 01:30:54;;;;;;;;;;;6.40;99.90;;;;;;5090215;28;19930;-48
2022/04/01 01:33:22;;;;;;;;;;;6.40;99.90;;;;;;5070235;28;19924;-48
2022/04/01 01:35:48;;;;;;;;;;;6.40;99.90;;;;;;5082410;28;19950;-49
2022/04/01 01:38:17;;;;;;;;;;;6.20;99.90;;;;;;5095053;28;20001;-48
2022/04/01 01:40:44;;;;;;;;;;;6.20;99.90;;;;;;5094636;28;19924;-48
2022/04/01 01:43:13;;;;;;;;;;;6.10;99.90;;;;;;5094377;28;19924;-48
2022/04/01 01:45:40;;;;;;;;;;;6.00;99.90;;;;;;5094528;28;19928;-49
2022/04/01 01:48:07;;;;;;;;;;;5.90;99.90;;;;;;5090894;28;19932;-47
2022/04/01 01:56:02;;;;;;;;;;;6.00;99.90;;;;;;5094635;28;20140;-48
2022/04/01 01:58:30;;;;;;;;;;;5.80;99.90;;;;;;5094417;28;19932;-48
2022/04/01 02:00:56;;;;;;;;;;;5.70;99.90;;;;;;5094628;28;19927;-48
2022/04/01 02:03:23;;;;;;;;;;;5.80;99.90;;;;;;5094139;28;20408;-48
2022/04/01 02:05:50;;;;;;;;;;;5.90;99.90;;;;;;5093984;28;19932;-48
2022/04/01 02:08:17;;;;;;;;;;;5.90;99.90;;;;;;5094063;28;20311;-49
2022/04/01 02:10:44;;;;;;;;;;;5.90;99.90;;;;;;5094560;28;19924;-48
2022/04/01 02:13:12;;;;;;;;;;;5.90;99.90;;;;;;5090442;28;20386;-48
2022/04/01 02:15:41;;;;;;;;;;;5.80;99.90;;;;;;5093997;28;19924;-48
2022/04/01 02:18:07;;;;;;;;;;;5.90;99.90;;;;;;5094094;28;19924;-48
2022/04/01 02:20:34;;;;;;;;;;;6.00;99.90;;;;;;5093817;28;19924;-49
2022/04/01 02:23:01;;;;;;;;;;;6.10;99.90;;;;;;5093696;28;19969;-48
2022/04/01 02:25:28;;;;;;;;;;;6.00;99.90;;;;;;5093324;28;19924;-48
2022/04/01 02:27:55;;;;;;;;;;;6.00;99.90;;;;;;5093699;28;19924;-48
2022/04/01 02:30:22;;;;;;;;;;;5.90;99.90;;;;;;5093930;28;19928;-47
2022/04/01 02:32:50;;;;;;;;;;;5.80;99.90;;;;;;5085477;28;19928;-49
2022/04/01 02:35:18;;;;;;;;;;;6.10;99.90;;;;;;5093669;28;19924;-49
2022/04/01 02:37:45;;;;;;;;;;;6.00;99.90;;;;;;5093654;28;19931;-49
2022/04/01 02:40:12;;;;;;;;;;;5.90;99.90;;;;;;5093360;28;19977;-49
2022/04/01 02:42:39;;;;;;;;;;;5.90;99.90;;;;;;5093419;28;19928;-48
2022/04/01 02:45:07;;;;;;;;;;;5.80;99.90;;;;;;5093558;28;19924;-48
2022/04/01 02:47:34;;;;;;;;;;;5.70;99.90;;;;;;5092893;28;19969;-49
2022/04/01 02:50:02;;;;;;;;;;;5.70;99.90;;;;;;5093490;28;19970;-48
2022/04/01 02:52:28;;;;;;;;;;;5.70;99.90;;;;;;5093091;28;20389;-48
2022/04/01 02:54:55;;;;;;;;;;;5.80;99.90;;;;;;5093013;28;20000;-49
2022/04/01 02:57:22;;;;;;;;;;;5.80;99.90;;;;;;5093332;28;19928;-49
2022/04/01 02:59:49;;;;;;;;;;;6.20;99.90;;;;;;5093169;28;20404;-49
2022/04/01 03:02:16;;;;;;;;;;;6.40;99.90;;;;;;5092965;28;19949;-48
2022/04/01 03:04:43;;;;;;;;;;;6.20;99.90;;;;;;5093177;28;19924;-48
2022/04/01 03:07:11;;;;;;;;;;;6.30;99.90;;;;;;5092855;28;19928;-48
2022/04/01 03:09:38;;;;;;;;;;;6.20;99.90;;;;;;5092675;28;20389;-48
2022/04/01 03:12:07;;;;;;;;;;;6.10;99.90;;;;;;5092733;28;20344;-49
2022/04/01 03:14:33;;;;;;;;;;;6.10;99.90;;;;;;5093034;28;19924;-48
2022/04/01 03:17:00;;;;;;;;;;;5.90;99.90;;;;;;5093105;28;19993;-49
2022/04/01 03:19:28;;;;;;;;;;;5.90;99.90;;;;;;5092813;28;19929;-49
2022/04/01 03:21:55;;;;;;;;;;;5.90;99.90;;;;;;5092295;28;19970;-48
2022/04/01 03:24:24;;;;;;;;;;;5.90;99.90;;;;;;5092542;28;20381;-49
2022/04/01 03:26:50;;;;;;;;;;;5.70;99.90;;;;;;5092907;28;19977;-49
2022/04/01 03:29:17;;;;;;;;;;;5.70;99.90;;;;;;5093030;28;20353;-49
2022/04/01 03:31:45;;;;;;;;;;;5.70;99.90;;;;;;5090062;28;19924;-49
2022/04/01 03:34:12;;;;;;;;;;;5.80;99.90;;;;;;5091597;28;20385;-49
2022/04/01 03:36:39;;;;;;;;;;;5.90;99.90;;;;;;5092582;28;19928;-48
2022/04/01 03:39:06;;;;;;;;;;;5.60;99.90;;;;;;5090189;28;19977;-49
2022/04/01 03:41:35;;;;;;;;;;;5.60;99.90;;;;;;5091365;28;20301;-50
2022/04/01 03:44:02;;;;;;;;;;;5.50;99.90;;;;;;5092427;28;19977;-50
2022/04/01 03:46:31;;;;;;;;;;;5.30;99.90;;;;;;5092443;28;19928;-50
2022/04/01 03:49:02;;;;;;;;;;;5.30;99.90;;;;;;5091973;28;19925;-49
2022/04/01 03:51:30;;;;;;;;;;;5.30;99.90;;;;;;5092409;28;19975;-49
2022/04/01 03:53:57;;;;;;;;;;;5.30;99.90;;;;;;5092198;28;20435;-49
2022/04/01 03:56:30;;;;;;;;;;;5.20;99.90;;;;;;5092240;28;20389;-49
2022/04/01 03:59:00;;;;;;;;;;;5.20;99.90;;;;;;5091462;28;19969;-49
2022/04/01 04:01:27;;;;;;;;;;;5.20;99.90;;;;;;5091632;28;19969;-49
2022/04/01 04:03:55;;;;;;;;;;;5.20;99.90;;;;;;5091979;28;19927;-49
2022/04/01 04:06:22;;;;;;;;;;;5.40;99.90;;;;;;5092464;28;19939;-49
2022/04/01 04:08:50;;;;;;;;;;;5.20;99.90;;;;;;5092202;28;20017;-49
2022/04/01 04:11:17;;;;;;;;;;;5.10;99.90;;;;;;5091549;28;20082;-50
2022/04/01 04:13:46;;;;;;;;;;;5.20;99.90;;;;;;5091269;28;19923;-49
2022/04/01 04:16:20;;;;;;;;;;;5.10;99.90;;;;;;5092088;28;20019;-50
2022/04/01 04:18:49;;;;;;;;;;;5.10;99.90;;;;;;5082837;28;19924;-49
2022/04/01 04:21:18;;;;;;;;;;;5.10;99.90;;;;;;5091122;28;20052;-49
2022/04/01 04:23:46;;;;;;;;;;;4.90;99.90;;;;;;5088209;28;19928;-49
2022/04/01 04:26:15;;;;;;;;;;;5.00;99.90;;;;;;5087976;28;20029;-50
2022/04/01 04:28:45;;;;;;;;;;;5.00;99.90;;;;;;5087332;28;20290;-50
2022/04/01 04:31:13;;;;;;;;;;;5.10;99.90;;;;;;5088989;28;20332;-49
2022/04/01 04:33:45;;;;;;;;;;;5.10;99.90;;;;;;5089329;28;19928;-49
2022/04/01 04:36:15;;;;;;;;;;;5.00;99.90;;;;;;5090990;28;20392;-50
2022/04/01 04:38:43;;;;;;;;;;;5.00;99.90;;;;;;5090854;28;20525;-50
2022/04/01 04:41:11;;;;;;;;;;;4.90;99.90;;;;;;5090975;28;19924;-49
2022/04/01 04:43:40;;;;;;;;;;;4.90;99.90;;;;;;5089658;28;20320;-49
2022/04/01 04:46:08;;;;;;;;;;;4.90;99.90;;;;;;5088969;28;19932;-49
2022/04/01 04:48:35;;;;;;;;;;;4.80;99.90;;;;;;5086668;28;20024;-49
2022/04/01 04:51:05;;;;;;;;;;;4.70;99.90;;;;;;5091588;28;19931;-49
2022/04/01 04:53:34;;;;;;;;;;;4.60;99.90;;;;;;5089681;28;20394;-49
2022/04/01 04:56:02;;;;;;;;;;;4.80;99.90;;;;;;5090912;28;19924;-49
2022/04/01 04:58:31;;;;;;;;;;;4.90;99.90;;;;;;5089719;28;19932;-49
2022/04/01 05:01:04;;;;;;;;;;;4.90;99.90;;;;;;5090749;28;19924;-49
2022/04/01 05:03:40;;;;;;;;;;;4.80;99.90;;;;;;5090624;28;19924;-49
2022/04/01 05:06:14;;;;;;;;;;;4.60;99.90;;;;;;5083787;28;20404;-49
2022/04/01 05:08:46;;;;;;;;;;;4.60;99.90;;;;;;5091094;28;20386;-49
2022/04/01 05:11:17;;;;;;;;;;;4.60;99.90;;;;;;5094000;28;19950;-49
2022/04/01 05:13:46;;;;;;;;;;;4.50;99.90;;;;;;5093888;28;19931;-49
2022/04/01 05:16:25;;;;;;;;;;;4.60;99.90;;;;;;5132115;22;20393;-57
2022/04/01 05:18:59;;;;;;;;;;;4.50;99.90;;;;;;5114854;28;19992;-56
2022/04/01 05:21:28;;;;;;;;;;;4.60;99.90;;;;;;5113918;28;19946;-56
2022/04/01 05:24:00;;;;;;;;;;;4.70;99.90;;;;;;5105852;28;20435;-56
2022/04/01 05:26:38;;;;;;;;;;;4.70;99.90;;;;;;5115320;28;19931;-56
2022/04/01 05:29:07;;;;;;;;;;;4.80;99.90;;;;;;5114550;28;19953;-57
2022/04/01 05:31:36;;;;;;;;;;;4.70;99.90;;;;;;5115990;28;19924;-56
2022/04/01 05:34:08;;;;;;;;;;;4.80;99.90;;;;;;5111866;28;19924;-56
2022/04/01 05:36:37;;;;;;;;;;;4.70;99.90;;;;;;5113910;28;19931;-56
2022/04/01 05:39:04;;;;;;;;;;;4.80;99.90;;;;;;5112851;28;19993;-57
2022/04/01 05:41:31;;;;;;;;;;;4.70;99.90;;;;;;5111899;28;20235;-56
2022/04/01 05:43:58;;;;;;;;;;;4.60;99.90;;;;;;5112228;28;19928;-57
2022/04/01 05:46:26;;;;;;;;;;;4.60;99.90;;;;;;5111820;28;20086;-57
2022/04/01 05:48:53;;;;;;;;;;;4.60;99.90;;;;;;5114212;28;19988;-56
2022/04/01 05:51:24;;;;;;;;;;;4.70;99.90;;;;;;5108705;28;19923;-57
2022/04/01 05:53:53;;;;;;;;;;;4.70;99.90;;;;;;5114602;28;20003;-57
2022/04/01 05:56:21;;;;;;;;;;;4.90;99.90;;;;;;5115462;28;19940;-57
2022/04/01 05:58:48;;;;;;;;;;;4.80;99.90;;;;;;5116852;28;19955;-57
2022/04/01 06:01:21;;;;;;;;;;;4.70;99.90;;;;;;5120789;28;19927;-58
2022/04/01 06:04:00;;;;;;;;;;;4.60;99.90;;;;;;5127238;28;20343;-57
2022/04/01 06:06:29;;;;;;;;;;;4.50;99.90;;;;;;5121598;28;20389;-58
2022/04/01 06:09:04;;;;;;;;;;;4.50;99.90;;;;;;5123626;28;19924;-58
2022/04/01 06:11:36;;;;;;;;;;;4.70;99.90;;;;;;5117716;28;20404;-57
2022/04/01 06:14:09;;;;;;;;;;;4.70;99.90;;;;;;5115564;28;19924;-58
2022/04/01 06:16:41;;;;;;;;;;;4.70;99.90;;;;;;5115515;28;19989;-57
2022/04/01 06:19:13;;;;;;;;;;;4.90;99.90;;;;;;5114966;28;19988;-58
2022/04/01 06:21:43;;;;;;;;;;;4.70;99.90;;;;;;5113045;28;20339;-57
2022/04/01 06:24:12;;;;;;;;;;;4.80;99.90;;;;;;5112228;28;20622;-57
2022/04/01 06:26:41;;;;;;;;;;;4.70;99.90;;;;;;5094978;28;19924;-57
2022/04/01 06:29:22;;;;;;;;;;;4.70;99.90;;;;;;5110455;28;19932;-57
2022/04/01 06:31:53;;;;;;;;;;;4.60;99.90;;;;;;5111926;28;19924;-57
2022/04/01 06:34:22;;;;;;;;;;;4.40;99.90;;;;;;5111077;28;19923;-57
2022/04/01 06:36:51;;;;;;;;;;;4.40;99.90;;;;;;5112875;28;20377;-56
2022/04/01 06:39:21;;;;;;;;;;;4.40;99.90;;;;;;5107405;28;19924;-56
2022/04/01 06:41:54;;;;;;;;;;;4.40;99.90;;;;;;5105103;28;19928;-57
2022/04/01 06:44:21;;;;;;;;;;;4.60;99.90;;;;;;5113644;28;20060;-57
2022/04/01 06:46:48;;;;;;;;;;;4.50;99.90;;;;;;5115199;28;19928;-57
2022/04/01 06:49:15;;;;;;;;;;;4.20;99.90;;;;;;5114918;28;19954;-57
2022/04/01 06:51:43;;;;;;;;;;;4.30;99.90;;;;;;5114260;28;19924;-57
2022/04/01 06:54:10;;;;;;;;;;;4.30;99.90;;;;;;5113495;28;20349;-57
2022/04/01 06:56:38;;;;;;;;;;;4.40;99.90;;;;;;5115069;28;20374;-57
2022/04/01 06:59:05;;;;;;;;;;;4.40;99.90;;;;;;5114660;28;20038;-56
2022/04/01 07:01:33;;;;;;;;;;;4.50;99.90;;;;;;5114771;28;19923;-56
2022/04/01 07:04:00;;;;;;;;;;;4.60;99.90;;;;;;5114677;28;19928;-57
2022/04/01 07:06:26;;;;;;;;;;;4.80;99.90;;;;;;5114842;28;19923;-57
2022/04/01 07:08:54;;;;;;;;;;;5.00;99.90;;;;;;5112896;28;19973;-57
2022/04/01 07:11:21;;;;;;;;;;;4.90;99.90;;;;;;5114819;28;19924;-57
2022/04/01 07:13:50;;;;;;;;;;;4.90;99.90;;;;;;5114581;28;19981;-58
2022/04/01 07:16:16;;;;;;;;;;;4.90;99.90;;;;;;5114001;28;19924;-58
2022/04/01 07:18:43;;;;;;;;;;;4.80;99.90;;;;;;5114745;28;19932;-58
2022/04/01 07:21:10;;;;;;;;;;;4.80;99.90;;;;;;5114461;28;19924;-58
2022/04/01 07:23:37;;;;;;;;;;;4.70;99.90;;;;;;5114522;28;19973;-58
2022/04/01 07:26:04;;;;;;;;;;;4.70;99.90;;;;;;5108534;28;19930;-58
2022/04/01 07:28:31;;;;;;;;;;;4.60;99.90;;;;;;5113861;28;19923;-58
2022/04/01 07:30:59;;;;;;;;;;;4.50;99.90;;;;;;5114462;28;19927;-58
2022/04/01 07:33:26;;;;;;;;;;;4.60;99.90;;;;;;5113683;28;19924;-58
2022/04/01 07:35:54;;;;;;;;;;;4.40;99.90;;;;;;5114048;28;19969;-58
2022/04/01 07:38:20;;;;;;;;;;;4.40;99.90;;;;;;5113645;28;19977;-58
2022/04/01 07:40:47;;;;;;;;;;;4.50;99.90;;;;;;5106018;28;19932;-58
2022/04/01 07:43:14;;;;;;;;;;;4.50;99.90;;;;;;5108357;28;19969;-57
2022/04/01 07:45:40;;;;;;;;;;;4.60;99.90;;;;;;5113784;28;19924;-58
2022/04/01 07:48:09;;;;;;;;;;;4.60;99.90;;;;;;5113884;28;19924;-58
2022/04/01 07:50:36;;;;;;;;;;;4.40;99.90;;;;;;5112317;28;19924;-58
2022/04/01 07:53:03;;;;;;;;;;;4.40;99.90;;;;;;5113608;28;19924;-58
2022/04/01 07:55:30;;;;;;;;;;;4.60;99.90;;;;;;5117048;28;19968;-58
2022/04/01 07:57:57;;;;;;;;;;;4.50;99.90;;;;;;5116657;28;19923;-58
2022/04/01 08:00:23;;;;;;;;;;;4.70;99.90;;;;;;5114187;28;19924;-58
2022/04/01 08:02:53;;;;;;;;;;;4.80;99.90;;;;;;5112996;28;19984;-58
2022/04/01 08:05:22;;;;;;;;;;;4.60;99.90;;;;;;5113305;28;19931;-58
2022/04/01 08:07:48;;;;;;;;;;;4.80;99.90;;;;;;5113768;28;19969;-58
2022/04/01 08:10:15;;;;;;;;;;;4.70;99.90;;;;;;5112757;28;19924;-58
2022/04/01 08:12:43;;;;;;;;;;;4.50;99.90;;;;;;5112395;28;19923;-58
2022/04/01 08:15:10;;;;;;;;;;;4.50;99.90;;;;;;5113234;28;19927;-58
2022/04/01 08:17:37;;;;;;;;;;;4.50;99.90;;;;;;5113110;28;19924;-57
2022/04/01 08:20:05;;;;;;;;;;;4.50;99.90;;;;;;5094399;28;19978;-58
2022/04/01 08:22:33;;;;;;;;;;;4.80;99.90;;;;;;5111755;28;19927;-57
2022/04/01 08:24:59;;;;;;;;;;;4.90;99.90;;;;;;5105711;28;19928;-57
2022/04/01 08:27:26;;;;;;;;;;;5.00;99.90;;;;;;5092854;28;19985;-57
2022/04/01 08:29:59;;;;;;;;;;;5.00;99.90;;;;;;5092813;28;19928;-57
2022/04/01 08:32:25;;;;;;;;;;;5.00;99.90;;;;;;5109536;28;20459;-57
2022/04/01 08:34:52;;;;;;;;;;;4.90;99.90;;;;;;5113399;28;19931;-57
2022/04/01 08:37:19;;;;;;;;;;;5.10;99.90;;;;;;5113094;28;20442;-57
2022/04/01 08:39:47;;;;;;;;;;;5.10;99.90;;;;;;5108664;28;20015;-57
2022/04/01 08:42:14;;;;;;;;;;;5.10;99.90;;;;;;5107218;28;19924;-57
2022/04/01 08:44:44;;;;;;;;;;;5.00;99.90;;;;;;5094403;28;19931;-57
2022/04/01 08:47:11;;;;;;;;;;;5.10;99.90;;;;;;5093746;28;19924;-57
2022/04/01 08:49:38;;;;;;;;;;;5.20;99.90;;;;;;5114469;28;19961;-57
2022/04/01 08:52:05;;;;;;;;;;;5.40;99.90;;;;;;5112422;28;19923;-57
2022/04/01 08:54:33;;;;;;;;;;;5.30;99.90;;;;;;5113083;28;19924;-57
2022/04/01 08:57:01;;;;;;;;;;;5.40;99.90;;;;;;5107189;28;19977;-57
2022/04/01 08:59:28;;;;;;;;;;;5.60;99.90;;;;;;5092735;28;20405;-55
2022/04/01 09:02:02;;;;;;;;;;;5.40;99.90;;;;;;5092232;28;20390;-57
2022/04/01 09:04:29;;;;;;;;;;;5.30;99.90;;;;;;5100562;28;19949;-57
2022/04/01 09:06:55;;;;;;;;;;;5.30;99.90;;;;;;5113517;28;19923;-57
2022/04/01 09:09:24;;;;;;;;;;;5.40;99.90;;;;;;5111062;28;19923;-57
2022/04/01 09:12:09;;;;;;;;;;;5.50;99.90;;;;;;5108346;28;19924;-56
2022/04/01 09:14:37;;;;;;;;;;;5.40;99.90;;;;;;5109244;28;20434;-56
2022/04/01 09:17:04;;;;;;;;;;;5.30;99.90;;;;;;5111779;28;19976;-56
2022/04/01 09:19:32;;;;;;;;;;;5.30;99.90;;;;;;5111761;28;19932;-57
2022/04/01 09:21:58;;;;;;;;;;;5.60;99.90;;;;;;5110982;28;20018;-60
2022/04/01 09:24:26;;;;;;;;;;;5.40;99.90;;;;;;5111707;28;19928;-56
2022/04/01 09:26:56;;;;;;;;;;;5.70;99.90;;;;;;5111586;28;19924;-55
2022/04/01 09:29:24;;;;;;;;;;;5.40;99.90;;;;;;5111208;28;20000;-56
2022/04/01 09:31:52;;;;;;;;;;;5.50;99.90;;;;;;5108637;28;19939;-56
2022/04/01 09:34:19;;;;;;;;;;;5.60;99.90;;;;;;5112762;27;19923;-56
2022/04/01 09:36:50;;;;;;;;;;;5.50;99.90;;;;;;5111706;28;19930;-56
2022/04/01 09:39:17;;;;;;;;;;;5.50;99.90;;;;;;5112525;28;19923;-56
2022/04/01 09:41:46;;;;;;;;;;;5.70;99.90;;;;;;5112043;28;20061;-56
2022/04/01 09:44:15;;;;;;;;;;;5.90;99.90;;;;;;5111897;28;20003;-59
2022/04/01 09:46:44;;;;;;;;;;;5.60;99.90;;;;;;5111302;28;19924;-56
2022/04/01 09:49:12;;;;;;;;;;;5.60;99.90;;;;;;5113776;28;20406;-56
2022/04/01 09:51:42;;;;;;;;;;;5.40;99.90;;;;;;5106676;28;19924;-56
2022/04/01 09:54:09;;;;;;;;;;;5.60;99.90;;;;;;5094098;28;19924;-56
2022/04/01 09:56:40;;;;;;;;;;;5.60;99.90;;;;;;5108649;28;19969;-56
2022/04/01 09:59:07;;;;;;;;;;;5.40;99.90;;;;;;5116019;28;19931;-56
2022/04/01 10:01:34;;;;;;;;;;;5.40;99.90;;;;;;5113887;28;19984;-56
2022/04/01 10:04:04;;;;;;;;;;;5.40;99.90;;;;;;5101778;28;19928;-56
2022/04/01 10:06:31;;;;;;;;;;;5.60;99.90;;;;;;5095670;28;19985;-56
2022/04/01 10:09:00;;;;;;;;;;;5.60;99.90;;;;;;5112004;28;19937;-56
2022/04/01 10:11:28;;;;;;;;;;;5.60;99.90;;;;;;5108967;27;19977;-56
2022/04/01 10:13:55;;;;;;;;;;;5.90;99.90;;;;;;5115615;28;19927;-56
2022/04/01 10:16:22;;;;;;;;;;;5.60;99.90;;;;;;5107980;28;19984;-56
2022/04/01 10:18:50;;;;;;;;;;;5.70;99.90;;;;;;5111867;28;19985;-56
2022/04/01 10:21:20;;;;;;;;;;;5.60;99.90;;;;;;5116548;28;20339;-56
2022/04/01 10:23:53;;;;;;;;;;;5.40;99.90;;;;;;5115734;28;20015;-55
2022/04/01 10:26:23;;;;;;;;;;;5.40;99.90;;;;;;5105671;28;19923;-55
2022/04/01 10:28:51;;;;;;;;;;;5.60;99.90;;;;;;5114756;28;19963;-55
2022/04/01 10:31:19;;;;;;;;;;;5.90;99.90;;;;;;5115386;28;19927;-55
2022/04/01 10:33:45;;;;;;;;;;;5.90;99.90;;;;;;5115378;28;19923;-56
2022/04/01 10:36:16;;;;;;;;;;;6.10;99.90;;;;;;5115431;27;19936;-55
2022/04/01 10:38:48;;;;;;;;;;;6.20;99.90;;;;;;5115021;28;19927;-55
2022/04/01 10:41:15;;;;;;;;;;;6.00;99.90;;;;;;5115405;28;19930;-55
2022/04/01 10:43:43;;;;;;;;;;;5.50;99.90;;;;;;5115342;28;20429;-56
2022/04/01 10:46:11;;;;;;;;;;;5.50;99.90;;;;;;5114019;28;19923;-56
2022/04/01 10:51:39;;;;;;;;;;;5.60;99.90;;;;;;5114488;28;20304;-56
2022/04/01 10:54:21;;;;;;;;;;;5.40;99.90;;;;;;5114873;28;19923;-55
2022/04/01 10:56:57;;;;;;;;;;;5.90;99.90;;;;;;5096459;28;20389;-56
2022/04/01 10:59:24;;;;;;;;;;;6.20;99.90;;;;;;5094696;28;19967;-56
2022/04/01 11:02:04;;;;;;;;;;;6.40;99.90;;;;;;5110534;28;19924;-56
2022/04/01 11:04:35;;;;;;;;;;;6.60;99.90;;;;;;5114293;28;19984;-56
2022/04/01 11:07:02;;;;;;;;;;;6.80;99.90;;;;;;5113361;27;19978;-56
2022/04/01 11:09:37;;;;;;;;;;;6.60;99.90;;;;;;5113976;28;20401;-55
2022/04/01 11:12:22;;;;;;;;;;;6.10;99.90;;;;;;5113131;28;19924;-56
2022/04/01 11:17:21;;;;;;;;;;;5.70;99.90;;;;;;5116472;22;19924;-51
2022/04/01 11:19:59;;;;;;;;;;;5.70;99.90;;;;;;5093087;28;19981;-50
2022/04/01 11:22:36;;;;;;;;;;;5.40;99.90;;;;;;5092517;28;19924;-49
2022/04/01 11:25:03;;;;;;;;;;;5.60;99.90;;;;;;5092661;28;19982;-48
2022/04/01 11:27:30;;;;;;;;;;;5.80;99.90;;;;;;5092008;28;19928;-48
2022/04/01 11:30:07;;;;;;;;;;;5.80;99.90;;;;;;5092018;28;19924;-49
2022/04/01 11:32:35;;;;;;;;;;;5.60;99.90;;;;;;5091644;28;20019;-49
2022/04/01 11:35:02;;;;;;;;;;;5.60;99.90;;;;;;5092501;28;20003;-49
2022/04/01 11:37:29;;;;;;;;;;;5.70;99.90;;;;;;5092387;28;20301;-49
2022/04/01 11:40:07;;;;;;;;;;;5.60;99.90;;;;;;5092613;28;19924;-49
2022/04/01 11:42:33;;;;;;;;;;;6.00;99.90;;;;;;5092517;28;19924;-49
2022/04/01 11:45:00;;;;;;;;;;;5.90;99.90;;;;;;5092580;28;20340;-49
2022/04/01 11:47:32;;;;;;;;;;;6.20;99.90;;;;;;5088555;28;20390;-49
2022/04/01 11:50:07;;;;;;;;;;;6.30;99.90;;;;;;5092199;28;19939;-48
2022/04/01 11:52:38;;;;;;;;;;;6.40;99.90;;;;;;5092084;28;19954;-49
2022/04/01 11:55:10;;;;;;;;;;;6.50;99.90;;;;;;5092190;28;19968;-49
2022/04/01 11:57:37;;;;;;;;;;;6.70;99.90;;;;;;5092194;28;19924;-49
2022/04/01 12:00:09;;;;;;;;;;;6.60;99.90;;;;;;5091064;28;19954;-50
2022/04/01 12:02:36;;;;;;;;;;;6.20;99.90;;;;;;5091248;28;20378;-49
2022/04/01 12:05:03;;;;;;;;;;;6.40;99.90;;;;;;5091983;28;20382;-49
2022/04/01 12:10:19;;;;;;;;;;;7.20;99.90;;;;;;5092073;28;19930;-49
2022/04/01 12:12:52;;;;;;;;;;;7.40;99.90;;;;;;5091333;28;20001;-49
2022/04/01 12:15:19;;;;;;;;;;;7.20;99.90;;;;;;5091324;28;20015;-49
2022/04/01 12:17:49;;;;;;;;;;;6.60;99.90;;;;;;5091814;28;20355;-50
2022/04/01 12:20:16;;;;;;;;;;;6.70;99.90;;;;;;5091230;28;20336;-49
2022/04/01 12:22:45;;;;;;;;;;;6.80;99.90;;;;;;5091145;28;19969;-48
2022/04/01 12:25:12;;;;;;;;;;;7.00;99.90;;;;;;5091692;28;20022;-50
2022/04/01 12:27:51;;;;;;;;;;;6.80;99.90;;;;;;5091124;28;19924;-49
2022/04/01 12:30:26;;;;;;;;;;;6.90;99.90;;;;;;5091004;28;19977;-49
2022/04/01 12:32:54;;;;;;;;;;;6.90;99.90;;;;;;5090392;28;19927;-49
2022/04/01 12:35:22;;;;;;;;;;;7.00;99.90;;;;;;5090108;28;19932;-49
2022/04/01 12:38:03;;;;;;;;;;;7.20;99.90;;;;;;5090406;28;19924;-49
2022/04/01 12:40:34;;;;;;;;;;;7.20;99.90;;;;;;5089826;28;20016;-49
2022/04/01 12:43:01;;;;;;;;;;;7.10;99.90;;;;;;5089952;28;19946;-49
2022/04/01 12:45:28;;;;;;;;;;;7.10;99.90;;;;;;5090220;28;19924;-48
2022/04/01 12:47:56;;;;;;;;;;;7.10;99.90;;;;;;5090553;28;19928;-50
2022/04/01 12:50:33;;;;;;;;;;;6.90;99.90;;;;;;5091440;28;19925;-50
2022/04/01 12:53:12;;;;;;;;;;;6.70;99.90;;;;;;5091137;28;20416;-49
2022/04/01 12:55:39;;;;;;;;;;;6.60;99.90;;;;;;5091534;28;19971;-49
2022/04/01 12:58:12;;;;;;;;;;;6.80;99.90;;;;;;5091237;28;19924;-49
2022/04/01 13:00:39;;;;;;;;;;;6.60;99.90;;;;;;5091535;28;19951;-50
2022/04/01 13:03:06;;;;;;;;;;;6.70;99.90;;;;;;5091082;28;20315;-50
2022/04/01 13:05:33;;;;;;;;;;;6.30;99.90;;;;;;5091041;28;20344;-49
2022/04/01 13:07:59;;;;;;;;;;;6.20;99.90;;;;;;5090183;28;19940;-49
2022/04/01 13:10:27;;;;;;;;;;;6.40;99.90;;;;;;5089608;28;19977;-48
2022/04/01 13:12:55;;;;;;;;;;;6.20;99.90;;;;;;5089402;28;20411;-49
2022/04/01 13:15:24;;;;;;;;;;;6.00;99.90;;;;;;5089692;28;19982;-49
2022/04/01 13:17:51;;;;;;;;;;;6.00;99.90;;;;;;5087834;28;19924;-49
2022/04/01 13:20:21;;;;;;;;;;;6.10;99.90;;;;;;5089585;28;20386;-48
2022/04/01 13:22:47;;;;;;;;;;;6.30;99.90;;;;;;5089654;28;19928;-49
2022/04/01 13:25:15;;;;;;;;;;;6.20;99.90;;;;;;5086409;28;19961;-49
2022/04/01 13:27:44;;;;;;;;;;;5.90;99.90;;;;;;5091218;28;20300;-49
2022/04/01 13:30:12;;;;;;;;;;;5.70;99.90;;;;;;5090778;28;19924;-49
2022/04/01 13:32:39;;;;;;;;;;;5.60;99.90;;;;;;5094312;28;19985;-49
2022/04/01 13:35:07;;;;;;;;;;;5.60;99.90;;;;;;5094199;28;20198;-48
2022/04/01 13:37:34;;;;;;;;;;;5.60;99.90;;;;;;5093421;28;19924;-49
2022/04/01 13:40:01;;;;;;;;;;;5.40;99.90;;;;;;5093570;28;20434;-48
2022/04/01 13:42:28;;;;;;;;;;;5.60;99.90;;;;;;5093849;28;19928;-50
2022/04/01 13:44:57;;;;;;;;;;;5.60;99.90;;;;;;5094405;28;19924;-49
2022/04/01 13:47:24;;;;;;;;;;;5.70;99.90;;;;;;5074291;28;19970;-49
2022/04/01 13:49:51;;;;;;;;;;;5.60;99.90;;;;;;5074638;28;19924;-50
2022/04/01 13:52:18;;;;;;;;;;;5.10;99.90;;;;;;5073976;28;19936;-50
2022/04/01 13:54:46;;;;;;;;;;;5.00;99.90;;;;;;5091988;28;19927;-50
2022/04/01 13:57:14;;;;;;;;;;;4.90;99.90;;;;;;5094061;28;19956;-50
2022/04/01 13:59:41;;;;;;;;;;;5.00;99.90;;;;;;5093916;28;19928;-50
2022/04/01 14:02:10;;;;;;;;;;;5.00;99.90;;;;;;5093881;28;19997;-49
2022/04/01 14:04:36;;;;;;;;;;;4.90;99.90;;;;;;5094251;28;19924;-49
2022/04/01 14:07:07;;;;;;;;;;;4.80;99.90;;;;;;5094364;28;19928;-49
2022/04/01 14:09:34;;;;;;;;;;;4.70;99.90;;;;;;5093322;28;19969;-48
2022/04/01 14:12:01;;;;;;;;;;;4.50;99.90;;;;;;5093774;28;19977;-49
2022/04/01 14:14:28;;;;;;;;;;;4.60;99.90;;;;;;5090374;28;19952;-49
2022/04/01 14:16:55;;;;;;;;;;;4.60;99.90;;;;;;5094010;28;19943;-49
2022/04/01 14:19:24;;;;;;;;;;;4.50;99.90;;;;;;5093827;28;19928;-49
2022/04/01 14:21:51;;;;;;;;;;;4.70;99.90;;;;;;5094006;28;19924;-48
2022/04/01 14:24:17;;;;;;;;;;;4.70;99.90;;;;;;5094020;28;19977;-50
2022/04/01 14:26:44;;;;;;;;;;;4.50;99.90;;;;;;5093393;28;19928;-49
2022/04/01 14:32:04;;;;;;;;;;;4.20;99.90;;;;;;5093676;28;19931;-49
2022/04/01 14:34:33;;;;;;;;;;;4.50;99.90;;;;;;5093428;28;19985;-48
2022/04/01 14:37:00;;;;;;;;;;;4.60;99.90;;;;;;5093382;28;19927;-49
2022/04/01 14:39:28;;;;;;;;;;;4.70;99.90;;;;;;5093494;28;20004;-49
2022/04/01 14:41:55;;;;;;;;;;;4.60;99.90;;;;;;5078078;28;19925;-48
2022/04/01 14:44:22;;;;;;;;;;;4.60;99.90;;;;;;5093143;28;19978;-48
2022/04/01 14:46:49;;;;;;;;;;;4.50;99.90;;;;;;5093103;28;19924;-48
2022/04/01 14:49:16;;;;;;;;;;;4.70;99.90;;;;;;5093533;28;19932;-48
2022/04/01 14:51:45;;;;;;;;;;;4.90;99.90;;;;;;5092791;28;19925;-48
2022/04/01 14:54:12;;;;;;;;;;;4.70;99.90;;;;;;5093570;28;19928;-49
2022/04/01 14:56:40;;;;;;;;;;;4.70;99.90;;;;;;5092464;28;20017;-50